Aviation Digital Data Service (ADDS)

Output produced by METARs form (2324 UTC 18 August 2019)
found at http://www.aviationweather.gov/metar/data/
 
Forecast for: ORMM (BASRAH/MAGAL , IQ)
Text: TAF ORMM 181600Z 1818/1918 30010KT CAVOK
Forecast period: 1800 UTC 18 August 2019 to 1800 UTC 19 August 2019
Forecast type: FROM: standard forecast or significant change
Winds: from the WNW (300 degrees) at 12 MPH (10 knots; 5.1 m/s)
Visibility: 6 or more miles 10+ km)
Ceiling: unknown
Clouds: missing
Weather: NSW  (no significant weather)